Latest Weather Observations for Spring Bay

IDT60801

Issued at 5:31 am EDT Tuesday 13 November 2018 (issued every 10 minutes, with the page automatically refreshed every 10 minutes)

About weather observations | Map of weather stations | Latest weather observations for TAS | Other Formats
Station Details ID: 092133 Name: SPRING BAY NTC AWS Lat: -42.55 Lon: 147.93 Height: 0.0 m
Data from the previous 72 hours. | See also: Recent months for locations in Tasmania
Date/Time
EDT
Temp
°C
App
Temp
°C
Dew
Point
°C
Rel
Hum
%
Delta-T
°C
Wind Press
QNH
hPa
Press
MSL
hPa
Rain since
9am
mm
Dir  Spd
km/h
Gust
km/h
Spd
kts
Gust
kts
13/05:30am 14.2 - - - - - - - - - 1010.6 1010.6 -
13/05:00am 14.2 - - - - - - - - - 1010.9 1010.9 -
13/04:30am 14.3 - - - - - - - - - 1011.0 1011.0 -
13/04:00am 14.3 - - - - - - - - - 1011.2 1011.2 -
13/03:30am 14.5 - - - - - - - - - 1011.6 1011.6 -
13/03:00am 14.7 - - - - - - - - - 1012.0 1012.0 -
13/02:30am 14.9 - - - - - - - - - 1012.3 1012.3 -
13/02:00am 15.8 - - - - - - - - - 1012.7 1012.7 -
13/01:30am 15.9 - - - - - - - - - 1013.1 1013.1 -
13/01:00am 16.2 - - - - - - - - - 1013.3 1013.3 -
13/12:30am 15.9 - - - - - - - - - 1013.7 1013.7 -
13/12:00am 16.0 - - - - - - - - - 1014.1 1014.1 -
 
Date/Time
EDT
Temp
°C
App
Temp
°C
Dew
Point
°C
Rel
Hum
%
Delta-T
°C
Wind Press
QNH
hPa
Press
MSL
hPa
Rain since
9am
mm
Dir  Spd
km/h
Gust
km/h
Spd
kts
Gust
kts
12/11:30pm 15.8 - - - - - - - - - 1014.8 1014.8 -
12/11:00pm 15.6 - - - - - - - - - 1015.1 1015.1 -
12/10:30pm 15.3 - - - - - - - - - 1015.5 1015.5 -
12/10:00pm 15.6 - - - - - - - - - 1016.0 1016.0 -
12/09:30pm 15.8 - - - - - - - - - 1016.3 1016.3 -
12/09:00pm 15.6 - - - - - - - - - 1016.3 1016.3 -
12/08:30pm 15.7 - - - - - - - - - 1016.3 1016.3 -
12/08:00pm 16.3 - - - - - - - - - 1016.1 1016.1 -
12/07:30pm 16.8 - - - - - - - - - 1016.0 1016.0 -
12/07:00pm 17.1 - - - - - - - - - 1016.1 1016.1 -
12/06:30pm 17.6 - - - - - - - - - 1016.3 1016.3 -
12/06:00pm 17.4 - - - - - - - - - 1016.3 1016.3 -
12/05:30pm 18.1 - - - - - - - - - 1016.2 1016.2 -
12/05:00pm 18.1 - - - - - - - - - 1016.3 1016.3 -
12/04:30pm 18.6 - - - - - - - - - 1016.6 1016.6 -
12/04:00pm 17.7 - - - - - - - - - 1016.7 1016.7 -
12/03:30pm 17.7 - - - - - - - - - 1017.0 1017.0 -
12/03:00pm 17.8 - - - - - - - - - 1017.3 1017.3 -
12/02:30pm 17.9 - - - - - - - - - 1017.5 1017.5 -
12/02:00pm 17.9 - - - - - - - - - 1017.8 1017.8 -
12/01:30pm 18.3 - - - - - - - - - 1017.7 1017.7 -
12/01:00pm 18.2 - - - - - - - - - 1017.8 1017.8 -
12/12:30pm 18.4 - - - - - - - - - 1017.9 1017.9 -
12/12:00pm 18.1 - - - - - - - - - 1018.5 1018.5 -
12/11:30am 18.1 - - - - - - - - - 1019.0 1019.0 -
12/11:00am 17.9 - - - - - - - - - 1019.4 1019.4 -
12/10:30am 17.2 - - - - - - - - - 1019.9 1019.9 -
12/10:00am 16.6 - - - - - - - - - 1020.3 1020.3 -
12/09:30am 15.9 - - - - - - - - - 1020.7 1020.7 -
12/09:00am 15.6 - - - - - - - - - 1021.1 1021.1 -
12/08:30am 14.8 - - - - - - - - - 1021.3 1021.3 -
12/08:00am 14.3 - - - - - - - - - 1021.4 1021.4 -
12/07:30am 13.0 - - - - - - - - - 1021.5 1021.5 -
12/07:00am 11.1 - - - - - - - - - 1021.6 1021.6 -
12/06:30am 10.3 - - - - - - - - - 1021.5 1021.5 -
12/06:00am 10.1 - - - - - - - - - 1021.4 1021.4 -
12/05:30am 10.3 - - - - - - - - - 1021.3 1021.3 -
12/05:00am 10.7 - - - - - - - - - 1021.4 1021.4 -
12/04:30am 10.5 - - - - - - - - - 1021.4 1021.4 -
12/04:00am 11.3 - - - - - - - - - 1021.7 1021.7 -
12/03:30am 11.6 - - - - - - - - - 1021.5 1021.5 -
12/03:00am 12.6 - - - - - - - - - 1021.5 1021.5 -
12/02:30am 12.8 - - - - - - - - - 1021.7 1021.7 -
12/02:00am 13.2 - - - - - - - - - 1022.2 1022.2 -
12/01:30am 14.0 - - - - - - - - - 1022.4 1022.4 -
12/01:00am 14.3 - - - - - - - - - 1022.6 1022.6 -
12/12:30am 14.3 - - - - - - - - - 1022.8 1022.8 -
12/12:00am 14.3 - - - - - - - - - 1022.5 1022.5 -
 
Date/Time
EDT
Temp
°C
App
Temp
°C
Dew
Point
°C
Rel
Hum
%
Delta-T
°C
Wind Press
QNH
hPa
Press
MSL
hPa
Rain since
9am
mm
Dir  Spd
km/h
Gust
km/h
Spd
kts
Gust
kts
11/11:30pm 14.2 - - - - - - - - - 1022.8 1022.8 -
11/11:00pm 14.1 - - - - - - - - - 1023.1 1023.1 -
11/10:30pm 13.8 - - - - - - - - - 1023.2 1023.2 -
11/10:00pm 13.6 - - - - - - - - - 1023.4 1023.4 -
11/09:30pm 13.4 - - - - - - - - - 1023.4 1023.4 -
11/09:00pm 13.3 - - - - - - - - - 1023.3 1023.3 -
11/08:30pm 13.3 - - - - - - - - - 1023.0 1023.0 -
11/08:00pm 13.3 - - - - - - - - - 1022.6 1022.6 -
11/07:30pm 13.7 - - - - - - - - - 1022.3 1022.3 -
11/07:00pm 13.8 - - - - - - - - - 1022.0 1022.0 -
11/06:30pm 13.9 - - - - - - - - - 1021.8 1021.8 -
11/06:00pm 14.0 - - - - - - - - - 1021.8 1021.8 -
11/05:30pm 14.2 - - - - - - - - - 1021.7 1021.7 -
11/05:00pm 14.3 - - - - - - - - - 1021.4 1021.4 -
11/04:30pm 14.3 - - - - - - - - - 1021.5 1021.5 -
11/04:00pm 14.6 - - - - - - - - - 1021.6 1021.6 -
11/03:30pm 14.6 - - - - - - - - - 1021.5 1021.5 -
11/03:00pm 14.8 - - - - - - - - - 1021.3 1021.3 -
11/02:30pm 14.9 - - - - - - - - - 1021.2 1021.2 -
11/02:00pm 16.1 - - - - - - - - - 1021.0 1021.0 -
11/01:30pm 15.4 - - - - - - - - - 1020.8 1020.8 -
11/01:00pm 15.3 - - - - - - - - - 1020.8 1020.8 -
11/12:30pm 15.3 - - - - - - - - - 1020.7 1020.7 -
11/12:00pm 15.4 - - - - - - - - - 1020.7 1020.7 -
11/11:30am 16.0 - - - - - - - - - 1020.6 1020.6 -
11/11:00am 16.1 - - - - - - - - - 1020.5 1020.5 -
11/10:30am 16.2 - - - - - - - - - 1020.4 1020.4 -
11/10:00am 15.4 - - - - - - - - - 1020.2 1020.2 -
11/09:30am 15.7 - - - - - - - - - 1020.2 1020.2 -
11/09:00am 14.8 - - - - - - - - - 1020.2 1020.2 -
11/08:30am 14.8 - - - - - - - - - 1020.0 1020.0 -
11/08:00am 13.8 - - - - - - - - - 1019.8 1019.8 -
11/07:30am 12.4 - - - - - - - - - 1019.6 1019.6 -
11/07:00am 11.0 - - - - - - - - - 1019.4 1019.4 -
11/06:30am 9.7 - - - - - - - - - 1019.0 1019.0 -
11/06:00am 9.7 - - - - - - - - - 1018.6 1018.6 -
11/05:30am 9.2 - - - - - - - - - 1018.2 1018.2 -
11/05:00am 9.2 - - - - - - - - - 1017.8 1017.8 -
11/04:30am 9.4 - - - - - - - - - 1017.4 1017.4 -
11/04:00am 9.4 - - - - - - - - - 1017.1 1017.1 -
11/03:30am 9.6 - - - - - - - - - 1017.0 1017.0 -
11/03:00am 10.3 - - - - - - - - - 1016.7 1016.7 -
11/02:30am 10.4 - - - - - - - - - 1016.5 1016.5 -
11/02:00am 10.8 - - - - - - - - - 1016.6 1016.6 -
11/01:30am 11.4 - - - - - - - - - 1016.6 1016.6 -
11/01:00am 11.8 - - - - - - - - - 1016.6 1016.6 -
11/12:30am 12.7 - - - - - - - - - 1016.8 1016.8 -
11/12:00am 12.6 - - - - - - - - - 1016.6 1016.6 -
 
Date/Time
EDT
Temp
°C
App
Temp
°C
Dew
Point
°C
Rel
Hum
%
Delta-T
°C
Wind Press
QNH
hPa
Press
MSL
hPa
Rain since
9am
mm
Dir  Spd
km/h
Gust
km/h
Spd
kts
Gust
kts
10/11:30pm 12.7 - - - - - - - - - 1016.5 1016.5 -
10/11:00pm 12.9 - - - - - - - - - 1016.6 1016.6 -
10/10:30pm 12.9 - - - - - - - - - 1016.4 1016.4 -
10/10:00pm 12.8 - - - - - - - - - 1016.3 1016.3 -
10/09:30pm 12.9 - - - - - - - - - 1016.0 1016.0 -
10/09:00pm 13.1 - - - - - - - - - 1015.7 1015.7 -
10/08:30pm 13.2 - - - - - - - - - 1015.3 1015.3 -
10/08:00pm 13.6 - - - - - - - - - 1014.9 1014.9 -
10/07:30pm 14.8 - - - - - - - - - 1014.4 1014.4 -
10/07:00pm 15.1 - - - - - - - - - 1014.4 1014.4 -
10/06:30pm 15.5 - - - - - - - - - 1013.9 1013.9 -
10/06:00pm 15.8 - - - - - - - - - 1013.7 1013.7 -
10/05:30pm 16.1 - - - - - - - - - 1013.5 1013.5 -
10/05:00pm 16.5 - - - - - - - - - 1013.3 1013.3 -
10/04:30pm 15.9 - - - - - - - - - 1013.4 1013.4 -
10/04:00pm 16.1 - - - - - - - - - 1013.4 1013.4 -
10/03:30pm 16.4 - - - - - - - - - 1013.5 1013.5 -
10/03:00pm 15.7 - - - - - - - - - 1013.5 1013.5 -
10/02:30pm 15.9 - - - - - - - - - 1013.5 1013.5 -
10/02:00pm 17.1 - - - - - - - - - 1013.6 1013.6 -
10/01:30pm 17.4 - - - - - - - - - 1013.7 1013.7 -
10/01:00pm 17.0 - - - - - - - - - 1013.6 1013.6 -
10/12:30pm 17.6 - - - - - - - - - 1013.8 1013.8 -
10/12:00pm 17.6 - - - - - - - - - 1013.8 1013.8 -
10/11:30am 16.4 - - - - - - - - - 1014.0 1014.0 -
10/11:00am 16.4 - - - - - - - - - 1014.1 1014.1 -
10/10:30am 15.8 - - - - - - - - - 1014.3 1014.3 -
10/10:00am 15.6 - - - - - - - - - 1014.5 1014.5 -
10/09:30am 16.1 - - - - - - - - - 1014.5 1014.5 -
10/09:00am 14.8 - - - - - - - - - 1014.4 1014.4 -
10/08:30am 13.2 - - - - - - - - - 1014.3 1014.3 -
10/08:00am 12.9 - - - - - - - - - 1014.1 1014.1 -
10/07:30am 12.5 - - - - - - - - - 1014.0 1014.0 -
10/07:00am 11.1 - - - - - - - - - 1013.8 1013.8 -
10/06:30am 10.9 - - - - - - - - - 1013.6 1013.6 -
10/06:00am 11.2 - - - - - - - - - 1013.3 1013.3 -

Other Formats:

Comma delimited format used in spreadsheet applications
http://www.bom.gov.au/fwo/IDT60801/IDT60801.95987.axf

JavaScript Object Notation format (JSON) in row-major order
http://www.bom.gov.au/fwo/IDT60801/IDT60801.95987.json